Time;durP1;ratioP1;P1;durP2;ratioP2;P2;SDS_P1;SDS_P2;PMS_P1;PMS_P2;Temp;Humidity;BMP_temperature;BMP_pressure;BME280_temperature;BME280_humidity;BME280_pressure;Samples;Min_cycle;Max_cycle;Signal;HPM_P1;HPM_P2
2022/08/07 00:01:25;;;;;;;3.80;3.40;;;;;;;13.34;77.90;101392.78;5047601;28;20488;-82
2022/08/07 00:03:51;;;;;;;3.40;2.90;;;;;;;13.30;78.00;101385.97;5059634;28;20442;-81
2022/08/07 00:06:18;;;;;;;4.83;3.00;;;;;;;13.29;77.92;101389.63;5044017;28;20486;-82
2022/08/07 00:08:45;;;;;;;3.03;2.80;;;;;;;13.26;77.77;101390.75;5044707;28;20549;-82
2022/08/07 00:11:12;;;;;;;4.37;3.13;;;;;;;13.23;78.05;101385.63;5059779;28;20481;-82
2022/08/07 00:13:43;;;;;;;3.03;2.73;;;;;;;13.22;77.90;101383.91;5044397;28;20430;-82
2022/08/07 00:16:10;;;;;;;3.10;2.67;;;;;;;13.17;78.21;101372.69;5053386;28;20495;-82
2022/08/07 00:18:37;;;;;;;3.83;3.00;;;;;;;13.17;78.03;101384.28;5057808;28;20479;-81
2022/08/07 00:21:05;;;;;;;3.97;2.97;;;;;;;13.13;77.99;101382.84;5053459;28;20505;-77
2022/08/07 00:23:33;;;;;;;4.37;2.50;;;;;;;13.08;77.97;101379.69;5053220;28;20449;-76
2022/08/07 00:26:00;;;;;;;3.30;2.90;;;;;;;13.03;78.35;101370.34;5051118;28;20476;-77
2022/08/07 00:28:28;;;;;;;3.40;3.10;;;;;;;13.07;78.38;101377.16;5051895;28;20485;-76
2022/08/07 00:30:56;;;;;;;4.00;3.10;;;;;;;13.05;77.79;101365.69;5050677;28;20484;-76
2022/08/07 00:33:25;;;;;;;3.43;2.53;;;;;;;13.02;77.99;101360.56;5049153;28;21193;-81
2022/08/07 00:35:52;;;;;;;4.17;3.50;;;;;;;12.99;78.29;101367.06;5060676;28;20544;-81
2022/08/07 00:38:18;;;;;;;2.80;2.40;;;;;;;12.97;77.95;101369.88;5055323;28;20508;-80
2022/08/07 00:40:45;;;;;;;4.43;3.00;;;;;;;12.97;78.17;101364.50;5044143;28;20477;-80
2022/08/07 00:43:13;;;;;;;4.40;3.13;;;;;;;12.95;78.75;101363.78;5062933;28;20449;-80
2022/08/07 00:45:40;;;;;;;4.20;3.03;;;;;;;12.93;78.72;101365.75;5047878;28;20473;-79
2022/08/07 00:48:09;;;;;;;3.53;2.83;;;;;;;12.86;78.96;101375.28;5044188;28;20661;-80
2022/08/07 00:50:36;;;;;;;3.30;2.77;;;;;;;12.86;79.27;101374.44;5060631;28;20460;-80
2022/08/07 00:53:03;;;;;;;3.90;3.20;;;;;;;12.77;79.32;101371.53;5045996;28;20446;-79
2022/08/07 00:55:29;;;;;;;3.47;3.17;;;;;;;12.74;79.08;101371.81;5043887;28;20474;-80
2022/08/07 00:57:56;;;;;;;5.50;3.33;;;;;;;12.72;79.10;101368.38;5043006;28;20441;-80
2022/08/07 01:00:23;;;;;;;3.17;2.60;;;;;;;12.72;79.34;101376.41;5060836;28;20876;-80
2022/08/07 01:02:50;;;;;;;3.03;2.73;;;;;;;12.70;79.29;101369.50;5060901;28;20480;-80
2022/08/07 01:05:20;;;;;;;4.57;2.80;;;;;;;12.67;78.76;101373.25;5042455;28;20444;-80
2022/08/07 01:07:47;;;;;;;3.50;3.10;;;;;;;12.59;79.47;101370.38;5043107;28;20481;-80
2022/08/07 01:10:14;;;;;;;4.57;3.80;;;;;;;12.58;79.34;101369.50;5043763;28;20458;-80
2022/08/07 01:12:42;;;;;;;15.17;3.33;;;;;;;12.55;79.48;101361.75;5043751;28;20475;-80
2022/08/07 01:15:09;;;;;;;3.50;3.20;;;;;;;12.52;80.04;101361.97;5042550;28;20453;-79
2022/08/07 01:17:36;;;;;;;4.60;2.80;;;;;;;12.49;79.63;101362.22;5043094;28;20480;-80
2022/08/07 01:20:06;;;;;;;3.83;3.43;;;;;;;12.43;79.52;101363.59;5043744;28;20871;-80
2022/08/07 01:22:34;;;;;;;3.50;3.20;;;;;;;12.37;80.32;101364.06;5055977;28;20457;-80
2022/08/07 01:25:02;;;;;;;3.57;3.27;;;;;;;12.35;80.57;101363.34;5060021;28;20824;-80
2022/08/07 01:27:29;;;;;;;3.40;2.93;;;;;;;12.35;80.76;101363.34;5059246;28;20479;-80
2022/08/07 01:29:55;;;;;;;5.67;3.10;;;;;;;12.33;80.71;101367.16;5042357;28;20496;-80
2022/08/07 01:32:22;;;;;;;4.20;3.57;;;;;;;12.30;80.64;101357.50;5042320;28;20506;-80
2022/08/07 01:34:49;;;;;;;3.23;2.90;;;;;;;12.28;80.46;101358.63;5042839;28;20449;-81
2022/08/07 01:37:17;;;;;;;3.10;2.90;;;;;;;12.20;80.59;101356.56;5041943;28;20496;-81
2022/08/07 01:39:45;;;;;;;6.83;3.67;;;;;;;12.21;80.84;101352.91;5059258;28;20600;-81
2022/08/07 01:42:12;;;;;;;4.67;3.20;;;;;;;12.14;81.00;101357.06;5047304;28;20485;-82
2022/08/07 01:44:39;;;;;;;3.50;3.20;;;;;;;12.10;81.08;101348.41;5053503;28;20465;-82
2022/08/07 01:47:06;;;;;;;3.63;3.33;;;;;;;12.09;81.29;101351.22;5048450;28;20501;-82
2022/08/07 01:49:32;;;;;;;3.40;3.10;;;;;;;12.08;81.23;101352.19;5062808;28;20580;-82
2022/08/07 01:52:00;;;;;;;4.00;3.37;;;;;;;12.09;81.30;101353.91;5061805;28;20507;-82
2022/08/07 01:54:28;;;;;;;6.00;3.70;;;;;;;12.06;81.18;101344.25;5049532;28;20457;-81
2022/08/07 01:56:58;;;;;;;3.20;2.90;;;;;;;12.03;81.66;101340.00;5042251;28;20477;-82
2022/08/07 01:59:27;;;;;;;4.33;3.73;;;;;;;11.99;81.72;101341.22;5052624;28;20448;-81
2022/08/07 02:01:57;;;;;;;3.80;3.43;;;;;;;11.99;82.12;101338.53;5056343;28;20465;-81
2022/08/07 02:04:26;;;;;;;3.97;3.20;;;;;;;11.99;82.00;101338.53;5042656;28;20445;-81
2022/08/07 02:06:55;;;;;;;3.60;2.93;;;;;;;11.96;82.25;101341.47;5042254;28;20500;-82
2022/08/07 02:09:22;;;;;;;4.47;4.07;;;;;;;11.94;82.44;101339.88;5042541;28;20507;-82
2022/08/07 02:11:51;;;;;;;3.53;3.23;;;;;;;11.94;82.15;101331.84;5057468;28;20504;-81
2022/08/07 02:14:19;;;;;;;3.43;3.13;;;;;;;11.92;82.14;101331.97;5061529;28;20905;-82
2022/08/07 02:16:48;;;;;;;4.13;3.60;;;;;;;11.87;82.13;101340.34;5053245;28;20484;-82
2022/08/07 02:19:16;;;;;;;5.47;3.50;;;;;;;11.88;82.38;101338.53;5060793;28;20449;-82
2022/08/07 02:21:43;;;;;;;3.70;3.40;;;;;;;11.84;82.49;101331.72;5055348;28;20501;-82
2022/08/07 02:24:12;;;;;;;4.10;3.70;;;;;;;11.80;82.28;101323.03;5042451;28;20465;-82
2022/08/07 02:26:39;;;;;;;4.33;3.20;;;;;;;11.79;82.67;101331.22;5044540;28;20469;-82
2022/08/07 02:29:07;;;;;;;3.73;3.27;;;;;;;11.73;82.89;101331.69;5061179;28;20528;-82
2022/08/07 02:31:35;;;;;;;4.50;3.03;;;;;;;11.69;82.77;101323.91;5055333;28;20474;-82
2022/08/07 02:34:04;;;;;;;6.37;3.40;;;;;;;11.70;82.68;101322.09;5059722;28;20448;-82
2022/08/07 02:36:31;;;;;;;4.40;3.00;;;;;;;11.63;82.64;101326.19;5060041;28;20877;-82
2022/08/07 02:38:59;;;;;;;4.47;3.50;;;;;;;11.63;82.54;101327.06;5062987;28;20459;-81
2022/08/07 02:41:26;;;;;;;7.00;3.63;;;;;;;11.62;82.66;101325.38;5063256;28;20472;-83
2022/08/07 02:43:54;;;;;;;3.93;3.33;;;;;;;11.60;82.58;101321.13;5060308;28;20949;-82
2022/08/07 02:46:23;;;;;;;4.43;3.60;;;;;;;11.59;82.50;101325.59;5052393;28;20509;-82
2022/08/07 02:48:51;;;;;;;6.30;3.50;;;;;;;11.66;82.88;101326.81;5065127;28;20527;-81
2022/08/07 02:51:19;;;;;;;4.30;3.90;;;;;;;11.67;82.53;101325.84;5052084;28;21055;-81
2022/08/07 02:53:52;;;;;;;5.20;3.53;;;;;;;11.54;82.91;101327.78;5046234;28;20524;-81
2022/08/07 02:56:21;;;;;;;4.07;3.23;;;;;;;11.55;83.09;101326.81;5056806;28;20538;-81
2022/08/07 02:58:48;;;;;;;3.67;3.23;;;;;;;11.48;83.28;101323.78;5059263;28;20481;-81
2022/08/07 03:01:16;;;;;;;4.10;3.80;;;;;;;11.47;83.20;101323.88;5045570;28;20497;-81
2022/08/07 03:03:43;;;;;;;4.30;3.90;;;;;;;11.43;83.24;101320.59;5045389;28;20441;-81
2022/08/07 03:06:11;;;;;;;5.60;4.23;;;;;;;11.43;83.29;101315.25;5044471;28;21100;-81
2022/08/07 03:08:38;;;;;;;6.50;4.40;;;;;;;11.42;83.19;101316.22;5052182;28;20616;-81
2022/08/07 03:11:05;;;;;;;4.67;4.20;;;;;;;11.41;83.37;101319.88;5046028;28;20481;-81
2022/08/07 03:13:32;;;;;;;4.00;3.60;;;;;;;11.44;83.34;101325.00;5044986;28;20559;-81
2022/08/07 03:15:59;;;;;;;7.07;4.30;;;;;;;11.48;82.82;101325.59;5054631;28;20793;-81
2022/08/07 03:18:26;;;;;;;6.23;4.30;;;;;;;11.38;83.21;101325.44;5063284;28;20517;-81
2022/08/07 03:20:53;;;;;;;5.13;4.13;;;;;;;11.33;83.48;101322.28;5063796;28;20880;-81
2022/08/07 03:23:21;;;;;;;5.17;3.80;;;;;;;11.33;83.51;101316.94;5050959;28;20449;-81
2022/08/07 03:25:48;;;;;;;4.10;3.70;;;;;;;11.38;83.34;101327.28;5043779;28;20472;-81
2022/08/07 03:28:17;;;;;;;4.20;3.90;;;;;;;11.31;83.32;101319.72;5047981;28;20495;-81
2022/08/07 03:30:45;;;;;;;5.37;3.80;;;;;;;11.30;83.46;101326.06;5043984;28;20478;-80
2022/08/07 03:33:13;;;;;;;4.90;4.23;;;;;;;11.31;83.32;101327.75;5057389;28;20516;-80
2022/08/07 03:35:40;;;;;;;5.40;4.17;;;;;;;11.30;83.27;101317.16;5054644;28;20563;-80
2022/08/07 03:38:08;;;;;;;5.80;4.03;;;;;;;11.30;83.46;101326.06;5062958;28;20520;-80
2022/08/07 03:40:37;;;;;;;4.40;4.00;;;;;;;11.26;82.95;101323.72;5061603;28;21001;-80
2022/08/07 03:43:04;;;;;;;3.57;3.27;;;;;;;11.21;82.71;101320.56;5064051;28;20468;-80
2022/08/07 03:45:31;;;;;;;4.37;4.00;;;;;;;11.18;83.12;101310.97;5049129;28;20477;-81
2022/08/07 03:47:58;;;;;;;4.00;3.60;;;;;;;11.18;83.02;101321.66;5044589;28;20464;-80
2022/08/07 03:50:25;;;;;;;9.50;4.03;;;;;;;11.22;83.08;101314.25;5043407;28;20473;-80
2022/08/07 03:52:52;;;;;;;3.93;3.50;;;;;;;11.20;82.94;101325.06;5050966;28;20441;-80
2022/08/07 03:55:19;;;;;;;6.10;4.20;;;;;;;11.17;83.10;101327.13;5060040;28;20473;-79
2022/08/07 03:57:48;;;;;;;4.47;4.03;;;;;;;11.20;83.00;101317.03;5045671;28;20476;-79
2022/08/07 04:00:15;;;;;;;4.00;3.60;;;;;;;11.18;83.39;101319.00;5043140;28;20940;-80
2022/08/07 04:02:43;;;;;;;5.33;4.90;;;;;;;11.16;83.52;101318.22;5051845;28;20449;-80
2022/08/07 04:05:10;;;;;;;4.73;3.97;;;;;;;11.38;83.08;101320.09;5053136;28;20471;-80
2022/08/07 04:07:38;;;;;;;3.80;3.40;;;;;;;11.61;82.53;101326.34;5044822;28;20462;-81
2022/08/07 04:10:05;;;;;;;7.67;3.90;;;;;;;11.88;81.24;101328.66;5048871;28;20488;-80
2022/08/07 04:12:32;;;;;;;5.53;3.70;;;;;;;12.20;80.11;101324.38;5043536;28;20584;-80
2022/08/07 04:15:01;;;;;;;4.60;4.20;;;;;;;12.73;77.88;101327.16;5043626;28;20484;-81
2022/08/07 04:17:27;;;;;;;4.80;4.30;;;;;;;13.56;74.21;101336.22;5061071;28;20477;-80
2022/08/07 04:19:54;;;;;;;7.57;4.73;;;;;;;14.25;70.34;101334.66;5064175;28;20468;-80
2022/08/07 04:22:22;;;;;;;4.10;3.70;;;;;;;14.86;67.23;101325.56;5063575;28;20497;-80
2022/08/07 04:24:49;;;;;;;6.93;3.87;;;;;;;15.67;65.22;101340.41;5063885;28;20455;-80
2022/08/07 04:27:16;;;;;;;3.67;3.37;;;;;;;15.95;62.88;101335.97;5062852;28;20480;-80
2022/08/07 04:29:43;;;;;;;4.30;3.00;;;;;;;16.22;61.24;101325.31;5062872;28;20500;-80
2022/08/07 04:32:11;;;;;;;4.10;3.10;;;;;;;16.63;59.64;101332.00;5063024;28;20472;-81
2022/08/07 04:34:39;;;;;;;3.50;2.93;;;;;;;16.92;58.25;101328.22;5063629;28;20433;-80
2022/08/07 04:37:05;;;;;;;3.17;2.87;;;;;;;17.04;57.30;101326.97;5063218;28;20476;-80
2022/08/07 04:39:32;;;;;;;4.30;3.13;;;;;;;17.49;56.25;101325.94;5063300;28;20483;-81
2022/08/07 04:42:02;;;;;;;3.40;3.10;;;;;;;18.15;54.70;101328.16;5053104;28;21109;-80
2022/08/07 04:44:28;;;;;;;4.77;3.10;;;;;;;18.33;53.58;101330.72;5062467;28;20445;-81
2022/08/07 04:47:00;;;;;;;3.20;2.90;;;;;;;18.17;53.98;101326.13;5042885;28;20480;-81
2022/08/07 04:49:34;;;;;;;4.43;2.60;;;;;;;17.54;55.41;101332.72;5044040;28;20484;-81
2022/08/07 04:52:08;;;;;;;3.30;3.00;;;;;;;16.36;59.01;101340.97;5061002;28;20473;-81
2022/08/07 04:54:43;;;;;;;3.10;2.80;;;;;;;15.67;61.63;101339.56;5061756;28;20457;-82
2022/08/07 04:57:22;;;;;;;7.20;3.30;;;;;;;14.95;64.32;101337.31;5061946;28;21246;-81
2022/08/07 04:59:54;;;;;;;3.87;3.13;;;;;;;14.40;67.04;101337.78;5053410;28;21001;-81
2022/08/07 05:02:24;;;;;;;4.13;3.73;;;;;;;14.44;68.63;101349.13;5062327;28;21096;-81
2022/08/07 05:04:57;;;;;;;6.77;3.80;;;;;;;15.70;65.93;101342.81;5060116;28;20475;-81
2022/08/07 05:07:32;;;;;;;6.30;4.20;;;;;;;17.16;60.17;101342.94;5048027;28;20496;-81
2022/08/07 05:10:03;;;;;;;5.13;3.67;;;;;;;17.06;59.37;101338.47;5045247;28;20508;-81
2022/08/07 05:12:36;;;;;;;4.00;3.70;;;;;;;16.54;61.26;101341.00;5047421;28;21159;-80
2022/08/07 05:15:15;;;;;;;4.73;4.33;;;;;;;17.11;59.85;101343.41;5045123;28;20449;-81
2022/08/07 05:17:45;;;;;;;4.70;3.87;;;;;;;18.44;56.03;101343.97;5052486;28;20460;-81
2022/08/07 05:20:15;;;;;;;6.47;3.93;;;;;;;19.13;53.26;101338.28;5057592;28;20509;-80
2022/08/07 05:22:43;;;;;;;5.40;3.37;;;;;;;20.02;50.25;101346.47;5043061;28;20491;-81
2022/08/07 05:25:11;;;;;;;3.53;3.23;;;;;;;20.84;47.87;101346.00;5053852;28;20484;-81
2022/08/07 05:27:38;;;;;;;4.10;3.47;;;;;;;21.37;46.19;101346.03;5047293;28;20442;-81
2022/08/07 05:30:06;;;;;;;4.80;3.33;;;;;;;21.90;45.55;101343.31;5049901;28;20517;-81
2022/08/07 05:32:33;;;;;;;4.50;3.67;;;;;;;22.29;44.15;101350.31;5046881;28;20535;-82
2022/08/07 05:35:00;;;;;;;3.93;3.63;;;;;;;22.29;44.46;101353.91;5043028;28;20449;-82
2022/08/07 05:37:28;;;;;;;3.90;3.30;;;;;;;21.91;44.91;101347.75;5047880;28;20473;-80
2022/08/07 05:39:55;;;;;;;4.80;3.50;;;;;;;22.70;42.33;101356.03;5060097;28;20450;-80
2022/08/07 05:42:22;;;;;;;3.93;3.33;;;;;;;21.92;44.54;101346.69;5055279;28;20481;-82
2022/08/07 05:44:49;;;;;;;4.20;3.30;;;;;;;22.69;42.95;101353.50;5049139;28;20460;-82
2022/08/07 05:47:18;;;;;;;3.10;2.80;;;;;;;23.02;42.10;101355.69;5060280;28;20480;-82
2022/08/07 05:49:46;;;;;;;4.53;3.03;;;;;;;23.26;41.43;101354.47;5056093;28;20515;-82
2022/08/07 05:52:13;;;;;;;4.30;3.00;;;;;;;22.69;43.36;101354.34;5054090;28;21055;-79
2022/08/07 05:54:41;;;;;;;4.60;3.00;;;;;;;22.53;42.94;101352.72;5052375;28;21012;-80
2022/08/07 05:57:08;;;;;;;5.40;3.07;;;;;;;22.09;43.82;101361.78;5051533;28;20473;-78
2022/08/07 05:59:38;;;;;;;3.03;2.83;;;;;;;23.80;39.87;101367.47;5052911;28;20462;-80
2022/08/07 06:02:05;;;;;;;3.90;3.00;;;;;;;24.02;40.43;101360.03;5044661;28;20477;-79
2022/08/07 06:04:34;;;;;;;3.87;3.00;;;;;;;24.87;39.16;101367.09;5042353;28;20471;-80
2022/08/07 06:07:04;;;;;;;3.40;3.10;;;;;;;21.85;44.00;101359.38;5041664;28;20531;-80
2022/08/07 06:09:31;;;;;;;3.20;2.60;;;;;;;22.11;43.14;101364.31;5045048;28;20489;-80
2022/08/07 06:12:00;;;;;;;3.70;2.77;;;;;;;23.08;41.82;101369.44;5057133;28;20484;-78
2022/08/07 06:14:27;;;;;;;4.90;2.40;;;;;;;22.11;42.35;101357.00;5056715;28;20448;-79
2022/08/07 06:16:54;;;;;;;3.37;2.40;;;;;;;24.17;39.76;101365.38;5055887;28;20528;-80
2022/08/07 06:19:21;;;;;;;4.17;3.00;;;;;;;23.62;40.24;101365.25;5055533;28;20487;-80
2022/08/07 06:21:49;;;;;;;2.70;2.20;;;;;;;21.33;44.98;101361.91;5052301;28;20481;-80
2022/08/07 06:24:16;;;;;;;4.37;3.30;;;;;;;21.66;45.09;101368.94;5057673;28;20448;-72
2022/08/07 06:26:42;;;;;;;5.30;2.50;;;;;;;23.51;41.86;101365.81;5062753;28;20496;-73
2022/08/07 06:29:10;;;;;;;3.13;2.30;;;;;;;23.67;40.14;101372.84;5047474;28;20519;-73
2022/08/07 06:31:37;;;;;;;2.90;2.60;;;;;;;23.05;41.42;101372.56;5042946;28;20528;-72
2022/08/07 06:34:04;;;;;;;2.70;2.20;;;;;;;24.75;38.23;101369.59;5051519;28;20449;-73
2022/08/07 06:36:30;;;;;;;2.60;2.37;;;;;;;23.80;39.68;101367.47;5053997;28;20477;-72
2022/08/07 06:38:58;;;;;;;3.13;2.23;;;;;;;24.20;39.74;101373.19;5055030;28;20452;-72
2022/08/07 06:41:28;;;;;;;5.40;2.67;;;;;;;25.85;36.01;101363.69;5054550;28;20480;-73
2022/08/07 06:43:56;;;;;;;2.70;2.30;;;;;;;26.01;35.52;101367.91;5052724;28;20438;-73
2022/08/07 06:46:24;;;;;;;2.63;2.20;;;;;;;25.11;36.66;101369.22;5052410;28;20547;-73
2022/08/07 06:48:51;;;;;;;2.97;2.60;;;;;;;24.44;38.13;101373.66;5052564;28;20480;-73
2022/08/07 06:51:20;;;;;;;3.33;2.70;;;;;;;25.61;37.16;101362.50;5064735;28;20618;-72
2022/08/07 06:53:48;;;;;;;3.30;2.40;;;;;;;24.65;38.21;101372.75;5065310;28;20445;-75
2022/08/07 06:56:16;;;;;;;2.90;2.30;;;;;;;24.74;37.49;101371.47;5065447;28;20492;-75
2022/08/07 06:58:43;;;;;;;4.47;3.40;;;;;;;25.07;38.20;101370.69;5052763;28;20476;-75
2022/08/07 07:01:12;;;;;;;4.40;2.53;;;;;;;27.40;34.11;101366.25;5044521;28;20465;-75
2022/08/07 07:03:41;;;;;;;3.50;2.50;;;;;;;27.60;32.29;101365.19;5064520;28;20503;-75
2022/08/07 07:06:08;;;;;;;3.60;2.37;;;;;;;24.99;36.70;101368.97;5063923;28;20473;-75
2022/08/07 07:08:35;;;;;;;4.20;2.80;;;;;;;26.80;33.88;101358.44;5062819;28;20465;-76
2022/08/07 07:11:03;;;;;;;3.10;2.60;;;;;;;26.34;34.40;101364.19;5061652;28;20550;-73
2022/08/07 07:13:36;;;;;;;3.20;2.37;;;;;;;27.05;34.35;101369.47;5063489;28;20425;-74
2022/08/07 07:16:06;;;;;;;3.43;2.73;;;;;;;27.86;32.44;101361.31;5047654;28;20516;-73
2022/08/07 07:18:39;;;;;;;2.90;2.43;;;;;;;27.50;32.41;101356.63;5043529;28;20454;-73
2022/08/07 07:21:11;;;;;;;3.80;2.27;;;;;;;27.65;32.22;101340.63;5056941;28;20501;-73
2022/08/07 07:23:38;;;;;;;3.40;2.50;;;;;;;25.10;35.89;101350.25;5049838;28;20438;-73
2022/08/07 07:26:10;;;;;;;4.50;2.80;;;;;;;25.67;36.09;101337.81;5042872;28;20478;-73
2022/08/07 07:28:39;;;;;;;2.57;2.37;;;;;;;25.60;36.18;101336.16;5053833;28;20485;-74
2022/08/07 07:31:15;;;;;;;3.33;2.57;;;;;;;26.09;34.86;101342.97;5045566;28;20565;-74
2022/08/07 07:33:43;;;;;;;2.60;2.10;;;;;;;24.72;37.49;101348.97;5055168;28;20445;-73
2022/08/07 07:36:11;;;;;;;3.20;2.47;;;;;;;27.10;33.65;101338.59;5062282;28;20481;-74
2022/08/07 07:38:39;;;;;;;4.03;2.23;;;;;;;26.79;33.26;101331.25;5062065;28;20480;-73
2022/08/07 07:41:08;;;;;;;5.83;2.47;;;;;;;28.30;31.77;101336.53;5062054;28;20485;-74
2022/08/07 07:43:37;;;;;;;4.27;2.77;;;;;;;27.07;33.67;101341.78;5061618;28;20479;-73
2022/08/07 07:46:04;;;;;;;4.07;2.80;;;;;;;26.78;33.78;101333.13;5061650;28;20488;-74
2022/08/07 07:48:31;;;;;;;2.57;2.30;;;;;;;27.55;33.40;101334.81;5053226;28;20450;-73
2022/08/07 07:50:59;;;;;;;3.30;2.47;;;;;;;28.05;33.25;101337.44;5041809;28;20474;-73
2022/08/07 07:53:28;;;;;;;2.77;2.50;;;;;;;27.64;32.96;101336.22;5050879;28;20481;-73
2022/08/07 07:55:58;;;;;;;4.10;2.30;;;;;;;28.81;31.22;101334.31;5052318;28;20473;-73
2022/08/07 07:58:26;;;;;;;2.63;2.40;;;;;;;27.68;31.64;101329.19;5050733;28;20450;-73
2022/08/07 08:00:53;;;;;;;4.20;2.33;;;;;;;26.63;33.84;101325.22;5060502;28;20480;-73
2022/08/07 08:03:21;;;;;;;2.87;2.40;;;;;;;28.09;33.09;101324.94;5062282;28;20631;-72
2022/08/07 08:05:48;;;;;;;2.60;2.33;;;;;;;28.13;31.52;101322.56;5061550;28;20473;-74
2022/08/07 08:08:15;;;;;;;3.57;1.93;;;;;;;26.82;33.11;101314.31;5046490;28;20467;-74
2022/08/07 08:10:43;;;;;;;2.60;2.40;;;;;;;25.46;36.11;101311.53;5056793;28;20477;-78
2022/08/07 08:13:10;;;;;;;3.23;2.20;;;;;;;25.45;35.82;101312.59;5059312;28;20474;-76
2022/08/07 08:15:39;;;;;;;5.50;2.40;;;;;;;27.36;32.38;101311.97;5046667;28;20481;-77
2022/08/07 08:18:10;;;;;;;3.23;2.10;;;;;;;27.95;31.97;101301.41;5043835;28;20943;-76
2022/08/07 08:20:39;;;;;;;3.00;2.20;;;;;;;28.70;30.93;101314.78;5056154;28;20473;-76
2022/08/07 08:28:48;;;;;;;8.43;2.20;;;;;;;30.20;28.02;101310.78;5017421;28;20497;-76
2022/08/07 08:31:18;;;;;;;2.20;2.00;;;;;;;29.65;29.81;101321.22;5058904;28;20886;-75
2022/08/07 08:33:45;;;;;;;5.53;2.70;;;;;;;29.54;29.45;101308.28;5052383;28;20478;-76
2022/08/07 08:36:12;;;;;;;2.30;2.10;;;;;;;30.54;27.83;101313.66;5054974;28;20555;-76
2022/08/07 08:38:41;;;;;;;2.53;1.60;;;;;;;31.02;27.00;101319.75;5052048;28;20500;-76
2022/08/07 08:41:15;;;;;;;3.30;1.80;;;;;;;29.71;28.78;101313.06;5061643;28;20989;-76
2022/08/07 08:43:47;;;;;;;2.50;2.00;;;;;;;30.13;28.57;101302.66;5063051;28;20446;-76
2022/08/07 08:46:22;;;;;;;2.57;1.80;;;;;;;29.63;28.80;101298.59;5059853;28;20501;-76
2022/08/07 08:48:55;;;;;;;2.63;2.00;;;;;;;28.83;30.49;101301.91;5046601;28;20459;-76
2022/08/07 08:51:27;;;;;;;2.27;1.80;;;;;;;29.62;28.88;101305.16;5062461;28;20477;-75
2022/08/07 08:54:00;;;;;;;2.07;1.60;;;;;;;29.69;28.06;101302.28;5056416;28;20478;-76
2022/08/07 08:56:32;;;;;;;1.97;1.40;;;;;;;29.43;28.77;101295.38;5043954;28;20470;-76
2022/08/07 08:59:02;;;;;;;2.87;1.80;;;;;;;29.72;27.01;101299.03;5054510;28;20461;-75
2022/08/07 09:01:34;;;;;;;2.30;1.00;;;;;;;31.20;24.78;101294.63;5052207;28;20583;-76
2022/08/07 09:04:09;;;;;;;1.30;0.80;;;;;;;31.60;24.65;101292.75;5051613;28;20507;-77
2022/08/07 09:06:40;;;;;;;1.43;0.50;;;;;;;31.67;21.22;101296.97;5049907;28;20503;-77
2022/08/07 09:09:21;;;;;;;1.33;0.70;;;;;;;30.47;24.20;101291.75;5053576;28;20502;-78
2022/08/07 09:12:01;;;;;;;1.43;0.80;;;;;;;29.93;23.06;101292.06;5046191;28;20516;-79
2022/08/07 09:14:32;;;;;;;1.53;0.63;;;;;;;29.32;26.12;101299.78;5061014;28;20447;-78
2022/08/07 09:17:04;;;;;;;1.60;0.80;;;;;;;28.51;25.09;101291.97;5040282;28;20488;-79
2022/08/07 09:19:45;;;;;;;3.73;0.80;;;;;;;30.23;25.37;101291.81;5041468;28;20481;-79
2022/08/07 09:22:20;;;;;;;1.27;0.67;;;;;;;31.34;23.74;101292.34;5058119;28;20470;-79
2022/08/07 09:24:56;;;;;;;2.43;0.83;;;;;;;32.33;22.06;101296.09;5060921;28;20449;-80
2022/08/07 09:27:30;;;;;;;1.70;0.70;;;;;;;30.96;23.70;101289.28;5052039;28;20507;-79
2022/08/07 09:30:03;;;;;;;1.93;0.60;;;;;;;31.57;22.54;101282.19;5061926;28;20529;-80
2022/08/07 09:32:42;;;;;;;2.00;0.80;;;;;;;30.49;24.09;101291.50;5045166;28;20556;-79
2022/08/07 09:35:14;;;;;;;2.30;0.80;;;;;;;30.84;23.01;101287.69;5059647;28;20575;-81
2022/08/07 09:37:44;;;;;;;1.90;0.93;;;;;;;30.06;24.53;101284.59;5055403;28;20464;-80
2022/08/07 09:40:17;;;;;;;1.77;0.77;;;;;;;31.63;21.60;101281.16;5040885;28;20455;-78
2022/08/07 09:42:54;;;;;;;1.00;0.63;;;;;;;31.53;21.02;101282.69;5054492;28;21343;-81
2022/08/07 09:45:30;;;;;;;1.57;0.60;;;;;;;31.60;19.95;101281.69;5060913;28;20877;-80
2022/08/07 09:48:06;;;;;;;1.27;0.53;;;;;;;30.72;20.63;101279.47;5063680;28;20493;-77
2022/08/07 09:50:41;;;;;;;1.70;0.57;;;;;;;28.69;24.14;101284.75;5063715;28;20508;-77
2022/08/07 09:53:09;;;;;;;2.40;0.60;;;;;;;30.46;22.31;101273.50;5052769;28;20457;-75
2022/08/07 09:55:52;;;;;;;1.60;0.80;;;;;;;30.11;23.82;101262.63;5049383;28;20495;-75
2022/08/07 09:58:54;;;;;;;1.47;0.77;;;;;;;30.38;22.36;101260.97;5054684;28;20468;-75
2022/08/07 10:01:33;;;;;;;0.80;0.50;;;;;;;30.80;21.37;101270.78;5052001;28;21259;-76
2022/08/07 10:04:14;;;;;;;4.30;0.90;;;;;;;30.26;21.15;101262.91;5059400;28;20474;-76
2022/08/07 10:06:57;;;;;;;1.70;0.60;;;;;;;31.18;20.68;101260.91;5053434;28;20496;-75
2022/08/07 10:09:42;;;;;;;2.57;0.90;;;;;;;31.24;20.85;101261.81;5056703;28;20451;-75
2022/08/07 10:12:15;;;;;;;1.23;0.70;;;;;;;30.62;21.43;101254.47;5045854;28;20489;-77
2022/08/07 10:15:01;;;;;;;4.20;0.50;;;;;;;30.37;21.68;101248.25;5046524;28;20583;-75
2022/08/07 10:17:48;;;;;;;0.90;0.47;;;;;;;30.13;21.94;101246.66;5054586;28;20555;-76
2022/08/07 10:20:19;;;;;;;0.90;0.40;;;;;;;32.38;19.47;101240.81;5056438;28;20449;-75
2022/08/07 10:23:04;;;;;;;1.50;0.50;;;;;;;31.94;20.96;101232.56;5051990;28;20435;-75
2022/08/07 10:25:39;;;;;;;1.40;0.60;;;;;;;32.42;21.01;101238.34;5050041;28;20465;-77
2022/08/07 10:28:38;;;;;;;1.70;0.90;;;;;;;32.34;19.61;101236.88;5045236;28;20478;-76
2022/08/07 10:31:38;;;;;;;1.30;0.90;;;;;;;32.06;19.92;101238.00;5057773;28;20474;-77
2022/08/07 10:34:19;;;;;;;1.67;0.70;;;;;;;31.09;22.04;101240.31;5056052;28;20438;-76
2022/08/07 10:36:57;;;;;;;1.57;0.80;;;;;;;29.72;23.32;101232.91;5053853;28;20482;-77
2022/08/07 10:39:37;;;;;;;1.70;0.80;;;;;;;30.34;23.32;101232.16;5061891;28;20529;-76
2022/08/07 10:42:14;;;;;;;2.80;0.93;;;;;;;29.31;25.18;101231.19;5064543;28;20478;-77
2022/08/07 10:44:48;;;;;;;2.23;0.80;;;;;;;30.12;22.97;101220.16;5050029;28;20446;-76
2022/08/07 10:47:23;;;;;;;1.83;0.70;;;;;;;31.42;22.65;101222.84;5044014;28;20505;-77
2022/08/07 10:49:57;;;;;;;1.03;0.63;;;;;;;30.76;22.48;101229.03;5056778;28;22209;-77
2022/08/07 10:52:39;;;;;;;2.00;0.70;;;;;;;29.95;22.25;101223.72;5061610;28;21327;-76
2022/08/07 10:55:12;;;;;;;1.00;0.70;;;;;;;30.64;21.61;101217.25;5045032;28;20455;-77
2022/08/07 10:57:46;;;;;;;1.80;0.73;;;;;;;31.05;22.05;101217.88;5043363;28;20467;-77
2022/08/07 11:00:15;;;;;;;1.83;0.90;;;;;;;30.03;22.93;101215.06;5056815;28;20457;-76
2022/08/07 11:02:49;;;;;;;2.40;0.70;;;;;;;31.14;21.79;101216.38;5044348;28;20490;-77
2022/08/07 11:05:31;;;;;;;1.10;0.70;;;;;;;31.65;21.09;101221.75;5051829;28;20509;-79
2022/08/07 11:08:04;;;;;;;1.07;0.60;;;;;;;30.53;20.84;101213.47;5062514;28;20437;-77
2022/08/07 11:10:36;;;;;;;0.90;0.40;;;;;;;31.80;19.30;101207.25;5048530;28;20511;-77
2022/08/07 11:13:09;;;;;;;1.33;0.73;;;;;;;30.91;21.04;101206.34;5044492;28;20469;-77
2022/08/07 11:15:39;;;;;;;4.10;0.77;;;;;;;30.84;20.22;101189.09;5042778;28;21033;-76
2022/08/07 11:18:14;;;;;;;1.50;0.70;;;;;;;31.28;19.65;101200.28;5062332;28;20497;-79
2022/08/07 11:20:47;;;;;;;2.60;0.70;;;;;;;31.37;20.39;101189.59;5063154;28;20543;-77
2022/08/07 11:23:19;;;;;;;1.20;0.50;;;;;;;31.81;20.85;101203.41;5051286;28;20445;-78
2022/08/07 11:25:51;;;;;;;2.03;0.60;;;;;;;30.28;23.65;101200.06;5049221;28;20497;-77
2022/08/07 11:28:23;;;;;;;1.60;0.70;;;;;;;30.08;21.26;101194.16;5054628;28;21063;-77
2022/08/07 11:30:55;;;;;;;1.10;0.77;;;;;;;30.21;20.93;101183.66;5042806;28;20509;-77
2022/08/07 11:33:27;;;;;;;3.23;0.57;;;;;;;30.91;21.77;101183.41;5044762;28;20435;-77
2022/08/07 11:36:01;;;;;;;1.30;0.40;;;;;;;29.57;22.04;101181.06;5048541;28;20484;-78
2022/08/07 11:38:31;;;;;;;1.93;0.50;;;;;;;29.81;22.56;101169.97;5049464;28;20445;-77
2022/08/07 11:41:01;;;;;;;2.13;0.80;;;;;;;29.76;22.20;101169.88;5048387;28;20473;-76
2022/08/07 11:43:29;;;;;;;1.33;0.50;;;;;;;29.56;23.05;101170.28;5044326;28;20496;-76